Type Rating

Flugschule

Flugschule

Wir bieten eine professionelle und umfassende Ausbildung.

Flugwetter Augsburg

[Quelle: ADDS]
METAR
EDMA 201850Z 05004KT CAVOK 06/04 Q1016 =
EDMA 201700Z 2018/2103 VRB02KT CAVOK BECMG 2023/2101 3000 BR TEMPO 2101/2103 1200 BR
TAF
EDMA 201700Z 2018/2103 VRB02KT CAVOK BECMG 2023/2101 3000 BR TEMPO 2101/2103 1200 BR =

Kontakt

Type Rating

aäb cde fgh ijk lmn oöp qrsß tuü vwx yz AÄBC DEF GHI JKL MNO ÖPQ RST UÜV WXYZ ! "§ $%& /() =? * '<>

|; ²³~ @`´ ©«» ¼× {} aäb cde fgh ijk lmn oöp qrsß tuü vwx yz AÄBC DEF GHI JKL MNO ÖPQ RST UÜV WXYZ ! "§ $%& /() =? * '<>

|; ²³~ @`´ ©«» ¼× {} aäb cde fgh ijk lmn oöp qrsß tuü vwx yz AÄBC DEF GHI JKL MNO ÖPQ RST UÜV WXYZ ! "§ $%& /() =? * '<>

|; ²³~ @`´ ©«» ¼× {} aäb cde fgh ijk lmn oöp qrsß tuü vwx yz AÄBC DEF GHI JKL MNO ÖPQ RST UÜV WXYZ ! "§ $%& /() =? * '<>

|; ²³~ @`´ ©«» ¼× {} aäb cde fgh ijk lmn oöp qrsß tuü vwx yz AÄBC DEF GHI JKL MNO ÖPQ RST UÜV WXYZ ! "§ $%& /() =? * '<> |; ²³~ @`´ ©«» ¼× {} aäb cde fgh ijk lmn oöp qrsß tuü vwx yz AÄBC DEF GHI JKL MNO ÖPQ RST UÜV WXYZ ! "§ $%& /() =? * '<> |; ²³~ @`´ ©«» ¼× {}aäb cde fgh ijk lmn oöp qrsß tuü vwx yz AÄBC DEF GHI JKL MNO ÖPQ RST UÜV WXYZ ! "§